Fancher, New York
Current Conditions -  °F | °C
As of 6:54 PM on Monday 24 Nov 2014 (Local Time) from KROC Reporting Station
Few Clouds Few Clouds  
Wind Chill: 51°   Ceiling: Unl
Heat Index: 51°   Visibility: 10mi
Dew Point: 41°   Wind: 26mph
Humidity: 68%   Direction: 250°WSW
Pressure: 29.49"   Gusts: 33mph
Location:  43.24°N, 78.09°W
Report Text: KROC 242354Z 25023G29KT 10SM FEW035 11/05 A2949 RMK AO2 PK WND 25037/2307 SLP990 60001 T01060050 10211 20106 53050
Loading
Personal Weather Stations






























Interactive Weather Map New forecast layout! Learn more

10-Day Weather Forecast

Advertisements
Track Severe Weather on mobile